sensor_id;sensor_type;location;lat;lon;timestamp;temperature;humidity
16392;DHT22;8305;-33.882;151.134;2023-12-04T00:01:29;21.60;99.90
16392;DHT22;8305;-33.882;151.134;2023-12-04T00:04:00;21.70;99.90
16392;DHT22;8305;-33.882;151.134;2023-12-04T00:06:31;21.80;99.90
16392;DHT22;8305;-33.882;151.134;2023-12-04T00:09:04;21.90;99.90
16392;DHT22;8305;-33.882;151.134;2023-12-04T00:11:35;22.10;99.90
16392;DHT22;8305;-33.882;151.134;2023-12-04T00:14:05;22.50;99.90
16392;DHT22;8305;-33.882;151.134;2023-12-04T00:16:36;22.90;99.90
16392;DHT22;8305;-33.882;151.134;2023-12-04T00:19:07;23.30;99.90
16392;DHT22;8305;-33.882;151.134;2023-12-04T00:21:38;23.40;99.90
16392;DHT22;8305;-33.882;151.134;2023-12-04T00:24:10;23.60;99.90
16392;DHT22;8305;-33.882;151.134;2023-12-04T00:26:44;23.70;99.90
16392;DHT22;8305;-33.882;151.134;2023-12-04T00:29:15;23.80;99.90
16392;DHT22;8305;-33.882;151.134;2023-12-04T00:31:46;23.70;99.90
16392;DHT22;8305;-33.882;151.134;2023-12-04T00:34:16;23.60;99.90
16392;DHT22;8305;-33.882;151.134;2023-12-04T00:36:47;23.20;99.90
16392;DHT22;8305;-33.882;151.134;2023-12-04T00:39:20;23.10;99.90
16392;DHT22;8305;-33.882;151.134;2023-12-04T00:41:51;23.00;99.90
16392;DHT22;8305;-33.882;151.134;2023-12-04T00:44:21;23.00;99.90
16392;DHT22;8305;-33.882;151.134;2023-12-04T00:46:52;22.90;99.90
16392;DHT22;8305;-33.882;151.134;2023-12-04T00:49:23;22.80;99.90
16392;DHT22;8305;-33.882;151.134;2023-12-04T00:51:54;22.80;99.90
16392;DHT22;8305;-33.882;151.134;2023-12-04T00:54:26;22.60;99.90
16392;DHT22;8305;-33.882;151.134;2023-12-04T00:56:57;22.60;99.90
16392;DHT22;8305;-33.882;151.134;2023-12-04T00:59:28;22.50;99.90
16392;DHT22;8305;-33.882;151.134;2023-12-04T01:01:58;22.40;99.90
16392;DHT22;8305;-33.882;151.134;2023-12-04T01:04:29;22.30;99.90
16392;DHT22;8305;-33.882;151.134;2023-12-04T01:07:00;22.20;99.90
16392;DHT22;8305;-33.882;151.134;2023-12-04T01:09:35;22.20;99.90
16392;DHT22;8305;-33.882;151.134;2023-12-04T01:12:06;22.30;99.90
16392;DHT22;8305;-33.882;151.134;2023-12-04T01:14:37;22.40;99.90
16392;DHT22;8305;-33.882;151.134;2023-12-04T01:17:08;22.60;99.90
16392;DHT22;8305;-33.882;151.134;2023-12-04T01:19:39;22.70;99.90
16392;DHT22;8305;-33.882;151.134;2023-12-04T01:22:09;22.80;99.90
16392;DHT22;8305;-33.882;151.134;2023-12-04T01:24:42;22.90;99.90
16392;DHT22;8305;-33.882;151.134;2023-12-04T01:27:13;23.00;99.90
16392;DHT22;8305;-33.882;151.134;2023-12-04T01:29:44;23.50;99.90
16392;DHT22;8305;-33.882;151.134;2023-12-04T01:32:14;23.80;99.90
16392;DHT22;8305;-33.882;151.134;2023-12-04T01:34:45;23.90;99.90
16392;DHT22;8305;-33.882;151.134;2023-12-04T01:37:16;24.00;99.90
16392;DHT22;8305;-33.882;151.134;2023-12-04T01:39:49;24.10;99.90
16392;DHT22;8305;-33.882;151.134;2023-12-04T01:42:19;24.40;99.90
16392;DHT22;8305;-33.882;151.134;2023-12-04T01:44:50;24.40;99.90
16392;DHT22;8305;-33.882;151.134;2023-12-04T01:47:21;24.50;99.90
16392;DHT22;8305;-33.882;151.134;2023-12-04T01:49:52;24.80;99.90
16392;DHT22;8305;-33.882;151.134;2023-12-04T01:52:23;25.00;99.90
16392;DHT22;8305;-33.882;151.134;2023-12-04T01:54:56;25.10;99.90
16392;DHT22;8305;-33.882;151.134;2023-12-04T01:57:26;25.30;99.90
16392;DHT22;8305;-33.882;151.134;2023-12-04T01:59:57;25.30;99.90
16392;DHT22;8305;-33.882;151.134;2023-12-04T02:02:29;25.00;99.90
16392;DHT22;8305;-33.882;151.134;2023-12-04T02:05:00;24.80;99.90
16392;DHT22;8305;-33.882;151.134;2023-12-04T02:07:32;24.70;99.90
16392;DHT22;8305;-33.882;151.134;2023-12-04T02:10:05;24.60;99.90
16392;DHT22;8305;-33.882;151.134;2023-12-04T02:12:36;24.60;99.90
16392;DHT22;8305;-33.882;151.134;2023-12-04T02:15:08;24.30;99.90
16392;DHT22;8305;-33.882;151.134;2023-12-04T02:17:40;24.10;99.90
16392;DHT22;8305;-33.882;151.134;2023-12-04T02:20:13;24.30;99.90
16392;DHT22;8305;-33.882;151.134;2023-12-04T02:22:45;24.50;99.90
16392;DHT22;8305;-33.882;151.134;2023-12-04T02:25:17;24.90;99.90
16392;DHT22;8305;-33.882;151.134;2023-12-04T02:27:50;25.10;99.90
16392;DHT22;8305;-33.882;151.134;2023-12-04T02:30:24;25.50;99.90
16392;DHT22;8305;-33.882;151.134;2023-12-04T02:32:58;25.80;99.90
16392;DHT22;8305;-33.882;151.134;2023-12-04T02:35:32;25.80;99.90
16392;DHT22;8305;-33.882;151.134;2023-12-04T02:38:04;25.60;99.90
16392;DHT22;8305;-33.882;151.134;2023-12-04T02:40:37;25.20;99.90
16392;DHT22;8305;-33.882;151.134;2023-12-04T02:43:07;24.80;99.90
16392;DHT22;8305;-33.882;151.134;2023-12-04T02:45:38;24.50;99.90
16392;DHT22;8305;-33.882;151.134;2023-12-04T02:48:09;24.40;99.90
16392;DHT22;8305;-33.882;151.134;2023-12-04T02:50:40;24.20;99.90
16392;DHT22;8305;-33.882;151.134;2023-12-04T02:53:10;24.20;99.90
16392;DHT22;8305;-33.882;151.134;2023-12-04T02:55:43;24.10;99.90
16392;DHT22;8305;-33.882;151.134;2023-12-04T02:58:14;24.00;99.90
16392;DHT22;8305;-33.882;151.134;2023-12-04T03:00:45;24.00;99.90
16392;DHT22;8305;-33.882;151.134;2023-12-04T03:03:15;24.00;99.90
16392;DHT22;8305;-33.882;151.134;2023-12-04T03:05:46;24.10;99.90
16392;DHT22;8305;-33.882;151.134;2023-12-04T03:08:17;24.30;99.90
16392;DHT22;8305;-33.882;151.134;2023-12-04T03:10:49;24.60;99.90
16392;DHT22;8305;-33.882;151.134;2023-12-04T03:13:20;24.60;99.90
16392;DHT22;8305;-33.882;151.134;2023-12-04T03:15:51;24.80;99.90
16392;DHT22;8305;-33.882;151.134;2023-12-04T03:18:22;25.00;99.90
16392;DHT22;8305;-33.882;151.134;2023-12-04T03:20:53;25.00;99.90
16392;DHT22;8305;-33.882;151.134;2023-12-04T03:23:24;25.00;99.90
16392;DHT22;8305;-33.882;151.134;2023-12-04T03:25:57;24.90;99.90
16392;DHT22;8305;-33.882;151.134;2023-12-04T03:28:27;24.80;99.90
16392;DHT22;8305;-33.882;151.134;2023-12-04T03:30:58;24.90;99.90
16392;DHT22;8305;-33.882;151.134;2023-12-04T03:33:29;24.90;99.90
16392;DHT22;8305;-33.882;151.134;2023-12-04T03:36:00;24.70;99.90
16392;DHT22;8305;-33.882;151.134;2023-12-04T03:38:31;24.80;99.90
16392;DHT22;8305;-33.882;151.134;2023-12-04T03:41:04;24.60;99.90
16392;DHT22;8305;-33.882;151.134;2023-12-04T03:43:35;24.70;99.90
16392;DHT22;8305;-33.882;151.134;2023-12-04T03:46:06;24.80;99.90
16392;DHT22;8305;-33.882;151.134;2023-12-04T03:48:36;24.90;99.90
16392;DHT22;8305;-33.882;151.134;2023-12-04T03:51:08;25.00;99.90
16392;DHT22;8305;-33.882;151.134;2023-12-04T03:53:38;25.00;99.90
16392;DHT22;8305;-33.882;151.134;2023-12-04T03:56:12;24.80;99.90
16392;DHT22;8305;-33.882;151.134;2023-12-04T03:58:42;24.80;99.90
16392;DHT22;8305;-33.882;151.134;2023-12-04T04:01:13;24.60;99.90
16392;DHT22;8305;-33.882;151.134;2023-12-04T04:03:44;24.70;99.90
16392;DHT22;8305;-33.882;151.134;2023-12-04T04:06:15;24.60;99.90
16392;DHT22;8305;-33.882;151.134;2023-12-04T04:08:46;24.60;99.90
16392;DHT22;8305;-33.882;151.134;2023-12-04T04:11:19;24.40;99.90
16392;DHT22;8305;-33.882;151.134;2023-12-04T04:13:50;24.40;99.90
16392;DHT22;8305;-33.882;151.134;2023-12-04T04:16:20;24.40;99.90
16392;DHT22;8305;-33.882;151.134;2023-12-04T04:18:51;24.40;99.90
16392;DHT22;8305;-33.882;151.134;2023-12-04T04:21:22;24.30;99.90
16392;DHT22;8305;-33.882;151.134;2023-12-04T04:23:53;24.40;99.90
16392;DHT22;8305;-33.882;151.134;2023-12-04T04:26:25;24.30;99.90
16392;DHT22;8305;-33.882;151.134;2023-12-04T04:28:56;24.20;99.90
16392;DHT22;8305;-33.882;151.134;2023-12-04T04:31:27;24.30;99.90
16392;DHT22;8305;-33.882;151.134;2023-12-04T04:33:58;24.30;99.90
16392;DHT22;8305;-33.882;151.134;2023-12-04T04:36:28;24.10;99.90
16392;DHT22;8305;-33.882;151.134;2023-12-04T04:38:59;24.10;99.90
16392;DHT22;8305;-33.882;151.134;2023-12-04T04:41:32;24.30;99.90
16392;DHT22;8305;-33.882;151.134;2023-12-04T04:44:03;24.30;99.90
16392;DHT22;8305;-33.882;151.134;2023-12-04T04:46:34;24.30;99.90
16392;DHT22;8305;-33.882;151.134;2023-12-04T04:49:04;24.30;99.90
16392;DHT22;8305;-33.882;151.134;2023-12-04T04:51:35;24.20;99.90
16392;DHT22;8305;-33.882;151.134;2023-12-04T04:54:06;24.20;99.90
16392;DHT22;8305;-33.882;151.134;2023-12-04T04:56:39;24.00;99.90
16392;DHT22;8305;-33.882;151.134;2023-12-04T04:59:10;24.00;99.90
16392;DHT22;8305;-33.882;151.134;2023-12-04T05:01:40;24.00;99.90
16392;DHT22;8305;-33.882;151.134;2023-12-04T05:04:11;24.00;99.90
16392;DHT22;8305;-33.882;151.134;2023-12-04T05:06:42;24.10;99.90
16392;DHT22;8305;-33.882;151.134;2023-12-04T05:09:13;24.00;99.90
16392;DHT22;8305;-33.882;151.134;2023-12-04T05:11:45;24.00;99.90
16392;DHT22;8305;-33.882;151.134;2023-12-04T05:14:16;24.10;99.90
16392;DHT22;8305;-33.882;151.134;2023-12-04T05:16:47;24.10;99.90
16392;DHT22;8305;-33.882;151.134;2023-12-04T05:19:18;23.90;99.90
16392;DHT22;8305;-33.882;151.134;2023-12-04T05:21:49;23.90;99.90
16392;DHT22;8305;-33.882;151.134;2023-12-04T05:24:20;23.90;99.90
16392;DHT22;8305;-33.882;151.134;2023-12-04T05:26:52;23.90;99.90
16392;DHT22;8305;-33.882;151.134;2023-12-04T05:29:23;23.70;99.90
16392;DHT22;8305;-33.882;151.134;2023-12-04T05:31:54;23.70;99.90
16392;DHT22;8305;-33.882;151.134;2023-12-04T05:34:25;23.70;99.90
16392;DHT22;8305;-33.882;151.134;2023-12-04T05:36:55;23.70;99.90
16392;DHT22;8305;-33.882;151.134;2023-12-04T05:39:26;23.70;99.90
16392;DHT22;8305;-33.882;151.134;2023-12-04T05:41:59;23.70;99.90
16392;DHT22;8305;-33.882;151.134;2023-12-04T05:44:31;23.60;99.90
16392;DHT22;8305;-33.882;151.134;2023-12-04T05:47:01;23.60;99.90
16392;DHT22;8305;-33.882;151.134;2023-12-04T05:49:32;23.50;99.90
16392;DHT22;8305;-33.882;151.134;2023-12-04T05:52:03;23.40;99.90
16392;DHT22;8305;-33.882;151.134;2023-12-04T05:54:34;23.40;99.90
16392;DHT22;8305;-33.882;151.134;2023-12-04T05:57:07;23.30;99.90
16392;DHT22;8305;-33.882;151.134;2023-12-04T05:59:37;23.30;99.90
16392;DHT22;8305;-33.882;151.134;2023-12-04T06:02:08;23.30;99.90
16392;DHT22;8305;-33.882;151.134;2023-12-04T06:04:39;23.30;99.90
16392;DHT22;8305;-33.882;151.134;2023-12-04T06:07:10;23.30;99.90
16392;DHT22;8305;-33.882;151.134;2023-12-04T06:09:42;23.30;99.90
16392;DHT22;8305;-33.882;151.134;2023-12-04T06:12:15;23.10;99.90
16392;DHT22;8305;-33.882;151.134;2023-12-04T06:14:45;23.10;99.90
16392;DHT22;8305;-33.882;151.134;2023-12-04T06:17:16;23.00;99.90
16392;DHT22;8305;-33.882;151.134;2023-12-04T06:19:47;23.00;99.90
16392;DHT22;8305;-33.882;151.134;2023-12-04T06:22:18;23.00;99.90
16392;DHT22;8305;-33.882;151.134;2023-12-04T06:24:49;23.00;99.90
16392;DHT22;8305;-33.882;151.134;2023-12-04T06:27:23;23.00;99.90
16392;DHT22;8305;-33.882;151.134;2023-12-04T06:29:54;23.00;99.90
16392;DHT22;8305;-33.882;151.134;2023-12-04T06:32:25;23.00;99.90
16392;DHT22;8305;-33.882;151.134;2023-12-04T06:34:56;22.90;99.90
16392;DHT22;8305;-33.882;151.134;2023-12-04T06:37:27;22.80;99.90
16392;DHT22;8305;-33.882;151.134;2023-12-04T06:40:01;22.80;99.90
16392;DHT22;8305;-33.882;151.134;2023-12-04T06:42:34;22.80;99.90
16392;DHT22;8305;-33.882;151.134;2023-12-04T06:45:06;22.70;99.90
16392;DHT22;8305;-33.882;151.134;2023-12-04T06:47:37;22.70;99.90
16392;DHT22;8305;-33.882;151.134;2023-12-04T06:50:10;22.70;99.90
16392;DHT22;8305;-33.882;151.134;2023-12-04T06:52:41;22.60;99.90
16392;DHT22;8305;-33.882;151.134;2023-12-04T06:55:12;22.50;99.90
16392;DHT22;8305;-33.882;151.134;2023-12-04T06:57:45;22.60;99.90
16392;DHT22;8305;-33.882;151.134;2023-12-04T07:00:16;22.60;99.90
16392;DHT22;8305;-33.882;151.134;2023-12-04T07:02:47;22.50;99.90
16392;DHT22;8305;-33.882;151.134;2023-12-04T07:05:18;22.50;99.90
16392;DHT22;8305;-33.882;151.134;2023-12-04T07:07:50;22.40;99.90
16392;DHT22;8305;-33.882;151.134;2023-12-04T07:10:20;22.40;99.90
16392;DHT22;8305;-33.882;151.134;2023-12-04T07:12:53;22.30;99.90
16392;DHT22;8305;-33.882;151.134;2023-12-04T07:15:27;22.20;99.90
16392;DHT22;8305;-33.882;151.134;2023-12-04T07:17:57;22.10;99.90
16392;DHT22;8305;-33.882;151.134;2023-12-04T07:20:28;22.20;99.90
16392;DHT22;8305;-33.882;151.134;2023-12-04T07:22:59;22.20;99.90
16392;DHT22;8305;-33.882;151.134;2023-12-04T07:25:30;22.30;99.90
16392;DHT22;8305;-33.882;151.134;2023-12-04T07:28:03;22.20;99.90
16392;DHT22;8305;-33.882;151.134;2023-12-04T07:30:33;22.20;99.90
16392;DHT22;8305;-33.882;151.134;2023-12-04T07:33:05;22.10;99.90
16392;DHT22;8305;-33.882;151.134;2023-12-04T07:35:36;22.10;99.90
16392;DHT22;8305;-33.882;151.134;2023-12-04T07:38:06;22.10;99.90
16392;DHT22;8305;-33.882;151.134;2023-12-04T07:40:37;22.00;99.90
16392;DHT22;8305;-33.882;151.134;2023-12-04T07:43:10;21.80;99.90
16392;DHT22;8305;-33.882;151.134;2023-12-04T07:45:42;21.80;99.90
16392;DHT22;8305;-33.882;151.134;2023-12-04T07:48:12;21.70;99.90
16392;DHT22;8305;-33.882;151.134;2023-12-04T07:50:44;21.70;99.90
16392;DHT22;8305;-33.882;151.134;2023-12-04T07:53:16;21.70;99.90
16392;DHT22;8305;-33.882;151.134;2023-12-04T07:55:50;21.70;99.90
16392;DHT22;8305;-33.882;151.134;2023-12-04T07:58:23;21.60;99.90
16392;DHT22;8305;-33.882;151.134;2023-12-04T08:00:54;21.60;99.90
16392;DHT22;8305;-33.882;151.134;2023-12-04T08:03:25;21.60;99.90
16392;DHT22;8305;-33.882;151.134;2023-12-04T08:05:56;21.60;99.90
16392;DHT22;8305;-33.882;151.134;2023-12-04T08:08:26;21.50;99.90
16392;DHT22;8305;-33.882;151.134;2023-12-04T08:10:57;21.50;99.90
16392;DHT22;8305;-33.882;151.134;2023-12-04T08:13:30;21.50;99.90
16392;DHT22;8305;-33.882;151.134;2023-12-04T08:16:01;21.60;99.90
16392;DHT22;8305;-33.882;151.134;2023-12-04T08:18:31;21.60;99.90
16392;DHT22;8305;-33.882;151.134;2023-12-04T08:21:02;21.50;99.90
16392;DHT22;8305;-33.882;151.134;2023-12-04T08:23:33;21.50;99.90
16392;DHT22;8305;-33.882;151.134;2023-12-04T08:26:04;21.40;99.90
16392;DHT22;8305;-33.882;151.134;2023-12-04T08:28:37;21.30;99.90
16392;DHT22;8305;-33.882;151.134;2023-12-04T08:31:09;21.30;99.90
16392;DHT22;8305;-33.882;151.134;2023-12-04T08:33:40;21.30;99.90
16392;DHT22;8305;-33.882;151.134;2023-12-04T08:36:11;21.20;99.90
16392;DHT22;8305;-33.882;151.134;2023-12-04T08:38:43;21.20;99.90
16392;DHT22;8305;-33.882;151.134;2023-12-04T08:41:14;21.10;99.90
16392;DHT22;8305;-33.882;151.134;2023-12-04T08:43:46;21.00;99.90
16392;DHT22;8305;-33.882;151.134;2023-12-04T08:46:17;21.00;99.90
16392;DHT22;8305;-33.882;151.134;2023-12-04T08:48:48;21.00;99.90
16392;DHT22;8305;-33.882;151.134;2023-12-04T08:51:19;21.00;99.90
16392;DHT22;8305;-33.882;151.134;2023-12-04T08:53:50;20.90;99.90
16392;DHT22;8305;-33.882;151.134;2023-12-04T08:56:20;20.90;99.90
16392;DHT22;8305;-33.882;151.134;2023-12-04T08:58:56;20.90;99.90
16392;DHT22;8305;-33.882;151.134;2023-12-04T09:01:27;20.90;99.90
16392;DHT22;8305;-33.882;151.134;2023-12-04T09:04:01;20.80;99.90
16392;DHT22;8305;-33.882;151.134;2023-12-04T09:06:31;20.80;99.90
16392;DHT22;8305;-33.882;151.134;2023-12-04T09:09:02;20.70;99.90
16392;DHT22;8305;-33.882;151.134;2023-12-04T09:11:33;20.70;99.90
16392;DHT22;8305;-33.882;151.134;2023-12-04T09:14:06;20.70;99.90
16392;DHT22;8305;-33.882;151.134;2023-12-04T09:16:36;20.70;99.90
16392;DHT22;8305;-33.882;151.134;2023-12-04T09:19:07;20.70;99.90
16392;DHT22;8305;-33.882;151.134;2023-12-04T09:21:41;20.70;99.90
16392;DHT22;8305;-33.882;151.134;2023-12-04T09:24:14;20.70;99.90
16392;DHT22;8305;-33.882;151.134;2023-12-04T09:26:45;20.60;99.90
16392;DHT22;8305;-33.882;151.134;2023-12-04T09:29:18;20.60;99.90
16392;DHT22;8305;-33.882;151.134;2023-12-04T09:31:52;20.60;99.90
16392;DHT22;8305;-33.882;151.134;2023-12-04T09:34:23;20.60;99.90
16392;DHT22;8305;-33.882;151.134;2023-12-04T09:36:53;20.60;99.90
16392;DHT22;8305;-33.882;151.134;2023-12-04T09:39:24;20.60;99.90
16392;DHT22;8305;-33.882;151.134;2023-12-04T09:41:56;20.50;99.90
16392;DHT22;8305;-33.882;151.134;2023-12-04T09:44:29;20.50;99.90
16392;DHT22;8305;-33.882;151.134;2023-12-04T09:47:01;20.50;99.90
16392;DHT22;8305;-33.882;151.134;2023-12-04T09:49:32;20.50;99.90
16392;DHT22;8305;-33.882;151.134;2023-12-04T09:52:03;20.50;99.90
16392;DHT22;8305;-33.882;151.134;2023-12-04T09:54:39;20.50;99.90
16392;DHT22;8305;-33.882;151.134;2023-12-04T09:57:10;20.50;99.90
16392;DHT22;8305;-33.882;151.134;2023-12-04T09:59:45;20.40;99.90
16392;DHT22;8305;-33.882;151.134;2023-12-04T10:02:15;20.50;99.90
16392;DHT22;8305;-33.882;151.134;2023-12-04T10:04:46;20.50;99.90
16392;DHT22;8305;-33.882;151.134;2023-12-04T10:07:17;20.40;99.90
16392;DHT22;8305;-33.882;151.134;2023-12-04T10:09:48;20.40;99.90
16392;DHT22;8305;-33.882;151.134;2023-12-04T10:12:21;20.40;99.90
16392;DHT22;8305;-33.882;151.134;2023-12-04T10:15:07;20.40;99.90
16392;DHT22;8305;-33.882;151.134;2023-12-04T10:17:43;20.40;99.90
16392;DHT22;8305;-33.882;151.134;2023-12-04T10:20:17;20.40;99.90
16392;DHT22;8305;-33.882;151.134;2023-12-04T10:22:55;20.30;99.90
16392;DHT22;8305;-33.882;151.134;2023-12-04T10:25:27;20.40;99.90
16392;DHT22;8305;-33.882;151.134;2023-12-04T10:28:08;20.40;99.90
16392;DHT22;8305;-33.882;151.134;2023-12-04T10:30:41;20.40;99.90
16392;DHT22;8305;-33.882;151.134;2023-12-04T10:33:13;20.40;99.90
16392;DHT22;8305;-33.882;151.134;2023-12-04T10:35:44;20.40;99.90
16392;DHT22;8305;-33.882;151.134;2023-12-04T10:38:17;20.40;99.90
16392;DHT22;8305;-33.882;151.134;2023-12-04T10:40:51;20.40;99.90
16392;DHT22;8305;-33.882;151.134;2023-12-04T10:43:24;20.30;99.90
16392;DHT22;8305;-33.882;151.134;2023-12-04T10:45:58;20.30;99.90
16392;DHT22;8305;-33.882;151.134;2023-12-04T10:48:32;20.30;99.90
16392;DHT22;8305;-33.882;151.134;2023-12-04T10:51:04;20.30;99.90
16392;DHT22;8305;-33.882;151.134;2023-12-04T10:53:36;20.30;99.90
16392;DHT22;8305;-33.882;151.134;2023-12-04T10:56:13;20.30;99.90
16392;DHT22;8305;-33.882;151.134;2023-12-04T10:58:47;20.30;99.90
16392;DHT22;8305;-33.882;151.134;2023-12-04T11:01:23;20.30;99.90
16392;DHT22;8305;-33.882;151.134;2023-12-04T11:03:58;20.30;99.90
16392;DHT22;8305;-33.882;151.134;2023-12-04T11:06:30;20.30;99.90
16392;DHT22;8305;-33.882;151.134;2023-12-04T11:09:02;20.20;99.90
16392;DHT22;8305;-33.882;151.134;2023-12-04T11:11:35;20.20;99.90
16392;DHT22;8305;-33.882;151.134;2023-12-04T11:14:08;20.20;99.90
16392;DHT22;8305;-33.882;151.134;2023-12-04T11:16:45;20.20;99.90
16392;DHT22;8305;-33.882;151.134;2023-12-04T11:19:23;20.20;99.90
16392;DHT22;8305;-33.882;151.134;2023-12-04T11:21:58;20.20;99.90
16392;DHT22;8305;-33.882;151.134;2023-12-04T11:24:29;20.20;99.90
16392;DHT22;8305;-33.882;151.134;2023-12-04T11:27:01;20.20;99.90
16392;DHT22;8305;-33.882;151.134;2023-12-04T11:29:32;20.20;99.90
16392;DHT22;8305;-33.882;151.134;2023-12-04T11:32:08;20.20;99.90
16392;DHT22;8305;-33.882;151.134;2023-12-04T11:34:49;20.20;99.90
16392;DHT22;8305;-33.882;151.134;2023-12-04T11:37:20;20.10;99.90
16392;DHT22;8305;-33.882;151.134;2023-12-04T11:39:51;20.10;99.90
16392;DHT22;8305;-33.882;151.134;2023-12-04T11:42:26;20.10;99.90
16392;DHT22;8305;-33.882;151.134;2023-12-04T11:44:58;20.10;99.90
16392;DHT22;8305;-33.882;151.134;2023-12-04T11:47:35;20.10;99.90
16392;DHT22;8305;-33.882;151.134;2023-12-04T11:50:19;20.00;99.90
16392;DHT22;8305;-33.882;151.134;2023-12-04T11:52:50;20.10;99.90
16392;DHT22;8305;-33.882;151.134;2023-12-04T11:55:22;20.10;99.90
16392;DHT22;8305;-33.882;151.134;2023-12-04T11:57:55;20.10;99.90
16392;DHT22;8305;-33.882;151.134;2023-12-04T12:00:26;20.00;99.90
16392;DHT22;8305;-33.882;151.134;2023-12-04T12:03:07;20.00;99.90
16392;DHT22;8305;-33.882;151.134;2023-12-04T12:05:38;20.00;99.90
16392;DHT22;8305;-33.882;151.134;2023-12-04T12:08:10;19.90;99.90
16392;DHT22;8305;-33.882;151.134;2023-12-04T12:10:41;19.90;99.90
16392;DHT22;8305;-33.882;151.134;2023-12-04T12:13:13;19.90;99.90
16392;DHT22;8305;-33.882;151.134;2023-12-04T12:15:43;19.90;99.90
16392;DHT22;8305;-33.882;151.134;2023-12-04T12:18:22;19.80;99.90
16392;DHT22;8305;-33.882;151.134;2023-12-04T12:20:55;19.80;99.90
16392;DHT22;8305;-33.882;151.134;2023-12-04T12:23:27;19.80;99.90
16392;DHT22;8305;-33.882;151.134;2023-12-04T12:25:59;19.80;99.90
16392;DHT22;8305;-33.882;151.134;2023-12-04T12:28:30;19.80;99.90
16392;DHT22;8305;-33.882;151.134;2023-12-04T12:31:04;19.80;99.90
16392;DHT22;8305;-33.882;151.134;2023-12-04T12:33:37;19.80;99.90
16392;DHT22;8305;-33.882;151.134;2023-12-04T12:36:09;19.80;99.90
16392;DHT22;8305;-33.882;151.134;2023-12-04T12:38:40;19.80;99.90
16392;DHT22;8305;-33.882;151.134;2023-12-04T12:41:14;19.80;99.90
16392;DHT22;8305;-33.882;151.134;2023-12-04T12:43:45;19.80;99.90
16392;DHT22;8305;-33.882;151.134;2023-12-04T12:46:18;19.80;99.90
16392;DHT22;8305;-33.882;151.134;2023-12-04T12:48:52;19.80;99.90
16392;DHT22;8305;-33.882;151.134;2023-12-04T12:51:24;19.70;99.90
16392;DHT22;8305;-33.882;151.134;2023-12-04T12:53:58;19.70;99.90
16392;DHT22;8305;-33.882;151.134;2023-12-04T12:56:29;19.70;99.90
16392;DHT22;8305;-33.882;151.134;2023-12-04T12:59:00;19.70;99.90
16392;DHT22;8305;-33.882;151.134;2023-12-04T13:01:32;19.70;99.90
16392;DHT22;8305;-33.882;151.134;2023-12-04T13:04:05;19.70;99.90
16392;DHT22;8305;-33.882;151.134;2023-12-04T13:06:37;19.60;99.90
16392;DHT22;8305;-33.882;151.134;2023-12-04T13:09:08;19.60;99.90
16392;DHT22;8305;-33.882;151.134;2023-12-04T13:11:45;19.60;99.90
16392;DHT22;8305;-33.882;151.134;2023-12-04T13:14:16;19.60;99.90
16392;DHT22;8305;-33.882;151.134;2023-12-04T13:16:47;19.60;99.90
16392;DHT22;8305;-33.882;151.134;2023-12-04T13:19:19;19.50;99.90
16392;DHT22;8305;-33.882;151.134;2023-12-04T13:21:50;19.50;99.90
16392;DHT22;8305;-33.882;151.134;2023-12-04T13:24:21;19.40;99.90
16392;DHT22;8305;-33.882;151.134;2023-12-04T13:26:51;19.40;99.90
16392;DHT22;8305;-33.882;151.134;2023-12-04T13:29:22;19.40;99.90
16392;DHT22;8305;-33.882;151.134;2023-12-04T13:31:53;19.30;99.90
16392;DHT22;8305;-33.882;151.134;2023-12-04T13:34:26;19.30;99.90
16392;DHT22;8305;-33.882;151.134;2023-12-04T13:36:56;19.30;99.90
16392;DHT22;8305;-33.882;151.134;2023-12-04T13:39:27;19.30;99.90
16392;DHT22;8305;-33.882;151.134;2023-12-04T13:42:15;19.30;99.90
16392;DHT22;8305;-33.882;151.134;2023-12-04T13:45:02;19.20;99.90
16392;DHT22;8305;-33.882;151.134;2023-12-04T13:47:37;19.20;99.90
16392;DHT22;8305;-33.882;151.134;2023-12-04T13:50:10;19.20;99.90
16392;DHT22;8305;-33.882;151.134;2023-12-04T13:52:41;19.20;99.90
16392;DHT22;8305;-33.882;151.134;2023-12-04T13:55:12;19.10;99.90
16392;DHT22;8305;-33.882;151.134;2023-12-04T13:57:48;19.10;99.90
16392;DHT22;8305;-33.882;151.134;2023-12-04T14:00:37;19.00;99.90
16392;DHT22;8305;-33.882;151.134;2023-12-04T14:03:08;19.00;99.90
16392;DHT22;8305;-33.882;151.134;2023-12-04T14:05:40;19.00;99.90
16392;DHT22;8305;-33.882;151.134;2023-12-04T14:08:11;18.90;99.90
16392;DHT22;8305;-33.882;151.134;2023-12-04T14:10:42;18.90;99.90
16392;DHT22;8305;-33.882;151.134;2023-12-04T14:13:14;18.90;99.90
16392;DHT22;8305;-33.882;151.134;2023-12-04T14:15:45;18.90;99.90
16392;DHT22;8305;-33.882;151.134;2023-12-04T14:18:16;18.90;99.90
16392;DHT22;8305;-33.882;151.134;2023-12-04T14:20:49;18.80;99.90
16392;DHT22;8305;-33.882;151.134;2023-12-04T14:23:20;18.90;99.90
16392;DHT22;8305;-33.882;151.134;2023-12-04T14:25:51;18.90;99.90
16392;DHT22;8305;-33.882;151.134;2023-12-04T14:28:21;18.80;99.90
16392;DHT22;8305;-33.882;151.134;2023-12-04T14:30:52;18.90;99.90
16392;DHT22;8305;-33.882;151.134;2023-12-04T14:33:23;18.90;99.90
16392;DHT22;8305;-33.882;151.134;2023-12-04T14:35:56;18.90;99.90
16392;DHT22;8305;-33.882;151.134;2023-12-04T14:38:26;18.90;99.90
16392;DHT22;8305;-33.882;151.134;2023-12-04T14:40:57;18.80;99.90
16392;DHT22;8305;-33.882;151.134;2023-12-04T14:43:29;18.80;99.90
16392;DHT22;8305;-33.882;151.134;2023-12-04T14:45:59;18.70;99.90
16392;DHT22;8305;-33.882;151.134;2023-12-04T14:48:30;18.80;99.90
16392;DHT22;8305;-33.882;151.134;2023-12-04T14:51:03;18.80;99.90
16392;DHT22;8305;-33.882;151.134;2023-12-04T14:53:34;18.80;99.90
16392;DHT22;8305;-33.882;151.134;2023-12-04T14:56:13;18.70;99.90
16392;DHT22;8305;-33.882;151.134;2023-12-04T14:58:59;18.80;99.90
16392;DHT22;8305;-33.882;151.134;2023-12-04T15:01:48;18.80;99.90
16392;DHT22;8305;-33.882;151.134;2023-12-04T15:04:31;18.80;99.90
16392;DHT22;8305;-33.882;151.134;2023-12-04T15:07:20;18.70;99.90
16392;DHT22;8305;-33.882;151.134;2023-12-04T15:10:21;18.70;99.90
16392;DHT22;8305;-33.882;151.134;2023-12-04T15:13:08;18.70;99.90
16392;DHT22;8305;-33.882;151.134;2023-12-04T15:15:54;18.70;99.90
16392;DHT22;8305;-33.882;151.134;2023-12-04T15:18:46;18.60;99.90
16392;DHT22;8305;-33.882;151.134;2023-12-04T15:21:44;18.60;99.90
16392;DHT22;8305;-33.882;151.134;2023-12-04T15:24:15;18.60;99.90
16392;DHT22;8305;-33.882;151.134;2023-12-04T15:26:46;18.60;99.90
16392;DHT22;8305;-33.882;151.134;2023-12-04T15:29:15;18.60;99.90
16392;DHT22;8305;-33.882;151.134;2023-12-04T15:31:48;18.60;99.90
16392;DHT22;8305;-33.882;151.134;2023-12-04T15:34:18;18.60;99.90